createdAt,value
2018-06-25T00:00:17.052Z,13.50
2018-06-25T00:02:44.924Z,13.60
2018-06-25T00:05:12.813Z,13.70
2018-06-25T00:07:40.617Z,13.70
2018-06-25T00:10:08.457Z,13.70
2018-06-25T00:12:36.270Z,13.70
2018-06-25T00:15:04.551Z,13.80
2018-06-25T00:17:32.337Z,13.80
2018-06-25T00:20:00.203Z,13.80
2018-06-25T00:22:27.977Z,13.70
2018-06-25T00:24:55.895Z,13.70
2018-06-25T00:27:23.718Z,13.60
2018-06-25T00:29:52.449Z,13.60
2018-06-25T00:32:20.534Z,13.60
2018-06-25T00:34:48.450Z,13.60
2018-06-25T00:37:16.408Z,13.50
2018-06-25T00:39:48.112Z,13.40
2018-06-25T00:42:15.989Z,13.40
2018-06-25T00:44:43.767Z,13.50
2018-06-25T00:47:11.677Z,13.40
2018-06-25T00:49:39.440Z,13.40
2018-06-25T00:52:07.303Z,13.30
2018-06-25T00:54:35.129Z,13.20
2018-06-25T00:57:03.058Z,13.10
2018-06-25T00:59:42.090Z,13.00
2018-06-25T01:02:10.083Z,12.90
2018-06-25T01:04:38.236Z,12.90
2018-06-25T01:07:06.319Z,12.90
2018-06-25T01:09:35.421Z,13.00
2018-06-25T01:12:03.516Z,13.00
2018-06-25T01:14:31.588Z,13.00
2018-06-25T01:16:59.636Z,13.00
2018-06-25T01:19:27.697Z,13.10
2018-06-25T01:21:55.759Z,13.20
2018-06-25T01:24:23.838Z,13.30
2018-06-25T01:26:51.800Z,13.50
2018-06-25T01:29:19.741Z,13.60
2018-06-25T01:31:47.693Z,13.70
2018-06-25T01:34:15.663Z,13.90
2018-06-25T01:36:43.712Z,14.00
2018-06-25T01:39:11.837Z,14.10
2018-06-25T01:41:39.809Z,14.10
2018-06-25T01:44:07.885Z,14.20
2018-06-25T01:46:36.656Z,14.20
2018-06-25T01:49:06.845Z,14.30
2018-06-25T01:51:36.979Z,14.40
2018-06-25T01:54:04.984Z,14.40
2018-06-25T01:56:32.992Z,14.50
2018-06-25T01:59:01.843Z,14.50
2018-06-25T02:01:31.017Z,14.50
2018-06-25T02:03:59.447Z,14.50
2018-06-25T02:06:27.964Z,14.60
2018-06-25T02:08:57.224Z,14.60
2018-06-25T02:11:25.246Z,14.60
2018-06-25T02:13:53.371Z,14.60
2018-06-25T02:16:21.456Z,14.60
2018-06-25T02:18:49.604Z,14.70
2018-06-25T02:21:17.570Z,14.70
2018-06-25T02:23:45.591Z,14.70
2018-06-25T02:28:38.859Z,14.70
2018-06-25T02:31:06.687Z,14.80
2018-06-25T02:33:34.614Z,14.80
2018-06-25T02:36:02.399Z,14.90
2018-06-25T02:38:30.374Z,14.80
2018-06-25T02:40:58.186Z,14.80
2018-06-25T02:43:26.060Z,14.80
2018-06-25T02:45:53.929Z,14.90
2018-06-25T02:48:21.789Z,14.90
2018-06-25T02:50:49.546Z,14.90
2018-06-25T02:53:17.423Z,14.90
2018-06-25T02:55:45.228Z,14.90
2018-06-25T02:58:13.103Z,14.90
2018-06-25T03:00:41.273Z,14.90
2018-06-25T03:03:09.111Z,14.90
2018-06-25T03:05:37.366Z,14.90
2018-06-25T03:08:05.330Z,14.90
2018-06-25T03:10:33.211Z,14.90
2018-06-25T03:13:01.037Z,14.90
2018-06-25T03:16:05.713Z,14.90
2018-06-25T03:20:59.052Z,15.00
2018-06-25T03:23:27.118Z,15.00
2018-06-25T03:25:54.993Z,14.90
2018-06-25T03:28:23.090Z,14.90
2018-06-25T03:30:51.098Z,14.90
2018-06-25T03:33:19.222Z,14.90
2018-06-25T03:35:47.218Z,14.90
2018-06-25T03:38:15.799Z,15.00
2018-06-25T03:40:43.909Z,15.00
2018-06-25T03:43:11.887Z,15.00
2018-06-25T03:45:40.788Z,15.00
2018-06-25T03:48:09.377Z,15.00
2018-06-25T03:50:37.477Z,15.00
2018-06-25T03:53:05.529Z,15.00
2018-06-25T03:55:35.691Z,15.00
2018-06-25T03:58:05.708Z,15.00
2018-06-25T04:00:34.042Z,15.00
2018-06-25T04:03:02.809Z,14.90
2018-06-25T04:05:31.603Z,14.90
2018-06-25T04:07:59.807Z,14.90
2018-06-25T04:10:28.969Z,15.00
2018-06-25T04:12:57.348Z,15.00
2018-06-25T04:15:27.194Z,15.00
2018-06-25T04:17:56.080Z,15.00
2018-06-25T04:20:25.076Z,15.10
2018-06-25T04:22:57.028Z,15.10
2018-06-25T04:25:25.606Z,15.10
2018-06-25T04:27:53.551Z,15.10
2018-06-25T04:30:21.470Z,15.20
2018-06-25T04:32:49.692Z,15.20
2018-06-25T04:35:17.687Z,15.20
2018-06-25T04:37:45.761Z,15.20
2018-06-25T04:40:13.742Z,15.20
2018-06-25T04:42:43.004Z,15.20
2018-06-25T04:45:10.929Z,15.30
2018-06-25T04:47:40.105Z,15.30
2018-06-25T04:50:08.421Z,15.30
2018-06-25T04:52:36.759Z,15.30
2018-06-25T04:55:06.092Z,15.30
2018-06-25T04:57:34.088Z,15.30
2018-06-25T05:00:02.201Z,15.30
2018-06-25T05:02:30.597Z,15.40
2018-06-25T05:04:58.663Z,15.50
2018-06-25T05:07:26.714Z,15.60
2018-06-25T05:09:54.782Z,15.80
2018-06-25T05:12:22.583Z,15.80
2018-06-25T05:14:50.576Z,15.90
2018-06-25T05:17:18.453Z,15.90
2018-06-25T05:19:47.984Z,15.90
2018-06-25T05:22:58.142Z,15.90
2018-06-25T05:25:26.049Z,16.00
2018-06-25T05:27:53.960Z,16.00
2018-06-25T05:30:21.934Z,16.10
2018-06-25T05:32:49.826Z,16.00
2018-06-25T05:35:17.824Z,16.10
2018-06-25T05:37:45.716Z,16.30
2018-06-25T05:40:13.701Z,16.30
2018-06-25T05:42:41.558Z,16.20
2018-06-25T05:45:09.498Z,16.30
2018-06-25T05:47:37.390Z,16.30
2018-06-25T05:50:05.376Z,16.40
2018-06-25T05:52:33.311Z,16.40
2018-06-25T05:55:01.132Z,16.40
2018-06-25T05:57:29.997Z,16.50
2018-06-25T05:59:57.702Z,16.60
2018-06-25T06:02:25.513Z,16.50
2018-06-25T06:04:53.280Z,16.50
2018-06-25T06:07:21.352Z,16.70
2018-06-25T06:09:49.113Z,16.70
2018-06-25T06:12:17.059Z,16.60
2018-06-25T06:14:44.830Z,16.50
2018-06-25T06:17:12.705Z,16.50
2018-06-25T06:19:40.468Z,16.60
2018-06-25T06:22:09.369Z,16.70
2018-06-25T06:24:37.231Z,16.60
2018-06-25T06:27:05.040Z,16.80
2018-06-25T06:29:49.692Z,16.90
2018-06-25T06:32:17.680Z,17.20
2018-06-25T06:34:45.547Z,17.50
2018-06-25T06:37:13.465Z,17.60
2018-06-25T06:39:41.342Z,17.70
2018-06-25T06:42:09.232Z,17.60
2018-06-25T06:44:37.119Z,17.60
2018-06-25T06:47:05.087Z,17.30
2018-06-25T06:49:32.969Z,17.30
2018-06-25T06:52:00.846Z,17.10
2018-06-25T06:54:28.766Z,17.30
2018-06-25T06:56:56.826Z,17.60
2018-06-25T06:59:25.005Z,17.90
2018-06-25T07:01:52.868Z,17.80
2018-06-25T07:04:20.826Z,17.60
2018-06-25T07:06:48.927Z,17.60
2018-06-25T07:09:16.835Z,17.80
2018-06-25T07:11:48.605Z,17.60
2018-06-25T07:14:27.428Z,17.70
2018-06-25T07:16:55.446Z,17.70
2018-06-25T07:19:23.573Z,17.50
2018-06-25T07:21:51.925Z,17.70
2018-06-25T07:24:19.932Z,17.90
2018-06-25T07:26:47.960Z,18.20
2018-06-25T07:29:15.957Z,18.40
2018-06-25T07:31:43.980Z,18.70
2018-06-25T07:34:11.931Z,18.80
2018-06-25T07:36:39.791Z,18.60
2018-06-25T07:39:08.628Z,18.70
2018-06-25T07:41:36.577Z,18.60
2018-06-25T07:44:21.602Z,18.60
2018-06-25T07:46:50.598Z,18.70
2018-06-25T07:49:32.624Z,18.70
2018-06-25T07:52:14.684Z,18.90
2018-06-25T07:54:55.890Z,19.10
2018-06-25T07:57:23.794Z,18.90
2018-06-25T07:59:51.839Z,18.90
2018-06-25T08:02:19.761Z,19.00
2018-06-25T08:04:51.142Z,19.20
2018-06-25T08:07:19.151Z,19.10
2018-06-25T08:09:50.759Z,19.10
2018-06-25T08:12:18.698Z,18.90
2018-06-25T08:14:46.612Z,18.80
2018-06-25T08:17:14.498Z,18.80
2018-06-25T08:19:42.445Z,19.00
2018-06-25T08:22:10.303Z,19.20
2018-06-25T08:24:38.144Z,19.30
2018-06-25T08:27:06.021Z,19.50
2018-06-25T08:29:33.832Z,19.20
2018-06-25T08:32:01.729Z,19.10
2018-06-25T08:34:29.771Z,19.50
2018-06-25T08:36:57.555Z,19.50
2018-06-25T08:39:25.304Z,19.30
2018-06-25T08:41:53.104Z,19.10
2018-06-25T08:44:20.912Z,19.10
2018-06-25T08:49:14.170Z,18.90
2018-06-25T08:51:42.301Z,18.80
2018-06-25T08:54:10.147Z,19.10
2018-06-25T08:56:38.067Z,19.10
2018-06-25T09:01:41.797Z,19.50
2018-06-25T09:04:23.719Z,19.90
2018-06-25T09:06:51.565Z,20.30
2018-06-25T09:09:19.519Z,20.60
2018-06-25T09:11:47.414Z,20.20
2018-06-25T09:14:23.792Z,20.00
2018-06-25T09:16:51.673Z,20.10
2018-06-25T09:19:19.647Z,20.20
2018-06-25T09:21:55.753Z,20.30
2018-06-25T09:24:23.804Z,20.30
2018-06-25T09:26:52.795Z,20.40
2018-06-25T09:29:20.879Z,20.60
2018-06-25T09:31:48.795Z,21.00
2018-06-25T09:34:22.091Z,21.10
2018-06-25T09:36:50.126Z,21.30
2018-06-25T09:39:40.271Z,21.10
2018-06-25T09:42:08.245Z,21.20
2018-06-25T09:44:36.221Z,21.70
2018-06-25T09:47:04.296Z,21.80
2018-06-25T09:49:32.148Z,21.60
2018-06-25T09:52:00.028Z,21.70
2018-06-25T09:54:28.093Z,22.10
2018-06-25T09:57:05.248Z,21.50
2018-06-25T09:59:33.264Z,21.20
2018-06-25T10:02:01.067Z,21.50
2018-06-25T10:04:28.891Z,21.40
2018-06-25T10:06:56.647Z,21.60
2018-06-25T10:09:24.451Z,21.50
2018-06-25T10:11:52.226Z,21.40
2018-06-25T10:14:20.989Z,21.10
2018-06-25T10:16:48.767Z,20.70
2018-06-25T10:19:16.537Z,20.80
2018-06-25T10:21:44.320Z,21.40
2018-06-25T10:24:12.068Z,21.90
2018-06-25T10:26:39.824Z,22.20
2018-06-25T10:29:07.567Z,21.70
2018-06-25T10:31:35.338Z,21.70
2018-06-25T10:34:03.190Z,22.10
2018-06-25T10:36:31.064Z,22.00
2018-06-25T10:38:58.888Z,21.60
2018-06-25T10:41:26.687Z,21.80
2018-06-25T10:43:54.618Z,22.50
2018-06-25T10:46:22.548Z,22.30
2018-06-25T10:48:50.670Z,22.30
2018-06-25T10:51:18.662Z,22.90
2018-06-25T10:53:46.621Z,23.20
2018-06-25T10:56:14.757Z,23.30
2018-06-25T10:58:42.764Z,23.00
2018-06-25T11:01:10.888Z,23.30
2018-06-25T11:03:38.810Z,23.30
2018-06-25T11:06:18.620Z,23.30
2018-06-25T11:08:46.526Z,23.20
2018-06-25T11:11:14.322Z,23.60
2018-06-25T11:13:42.176Z,23.70
2018-06-25T11:16:09.989Z,23.90
2018-06-25T11:18:37.775Z,24.10
2018-06-25T11:21:05.612Z,23.80
2018-06-25T11:23:33.338Z,23.40
2018-06-25T11:26:01.149Z,23.40
2018-06-25T11:28:28.926Z,23.60
2018-06-25T11:30:56.749Z,23.80
2018-06-25T11:33:24.547Z,23.70
2018-06-25T11:35:52.412Z,23.90
2018-06-25T11:38:20.253Z,23.80
2018-06-25T11:40:48.132Z,24.00
2018-06-25T11:43:15.849Z,24.30
2018-06-25T11:45:43.618Z,24.60
2018-06-25T11:48:18.721Z,24.50
2018-06-25T11:50:46.696Z,24.70
2018-06-25T11:53:14.645Z,24.60
2018-06-25T11:55:42.559Z,25.10
2018-06-25T11:58:10.562Z,24.80
2018-06-25T12:00:38.548Z,24.60
2018-06-25T12:03:06.874Z,24.80
2018-06-25T12:05:34.773Z,24.60
2018-06-25T12:08:02.812Z,24.50
2018-06-25T12:10:30.957Z,25.10
2018-06-25T12:12:58.991Z,24.70
2018-06-25T12:15:26.867Z,24.30
2018-06-25T12:17:55.678Z,24.90
2018-06-25T12:20:23.573Z,25.20
2018-06-25T12:22:51.620Z,25.10
2018-06-25T12:25:19.814Z,25.40
2018-06-25T12:27:47.980Z,25.20
2018-06-25T12:30:15.889Z,25.60
2018-06-25T12:32:43.881Z,25.50
2018-06-25T12:35:11.919Z,25.60
2018-06-25T12:37:39.776Z,25.30
2018-06-25T12:40:07.611Z,25.60
2018-06-25T12:42:35.553Z,24.80
2018-06-25T12:45:03.556Z,24.50
2018-06-25T12:47:33.510Z,25.00
2018-06-25T12:50:01.600Z,25.20
2018-06-25T12:52:29.542Z,26.30
2018-06-25T12:54:57.459Z,25.90
2018-06-25T12:57:25.420Z,25.90
2018-06-25T12:59:53.298Z,25.00
2018-06-25T13:02:22.202Z,25.60
2018-06-25T13:04:50.154Z,25.90
2018-06-25T13:07:18.204Z,26.40
2018-06-25T13:09:46.143Z,26.20
2018-06-25T13:12:14.141Z,26.10
2018-06-25T13:14:43.462Z,26.60
2018-06-25T13:17:11.719Z,26.90
2018-06-25T13:19:39.739Z,27.00
2018-06-25T13:22:07.800Z,27.10
2018-06-25T13:24:35.704Z,26.80
2018-06-25T13:27:03.741Z,26.60
2018-06-25T13:29:31.673Z,26.50
2018-06-25T13:31:59.578Z,26.60
2018-06-25T13:34:27.427Z,26.90
2018-06-25T13:36:55.380Z,27.00
2018-06-25T13:39:23.283Z,26.80
2018-06-25T13:41:52.235Z,26.50
2018-06-25T13:44:20.162Z,26.30
2018-06-25T13:46:48.160Z,26.30
2018-06-25T13:49:16.090Z,26.20
2018-06-25T13:51:44.091Z,26.20
2018-06-25T13:54:11.999Z,25.80
2018-06-25T13:56:39.986Z,25.80
2018-06-25T13:59:07.862Z,26.30
2018-06-25T14:01:35.968Z,26.90
2018-06-25T14:04:03.963Z,26.90
2018-06-25T14:06:32.012Z,26.60
2018-06-25T14:09:00.007Z,26.40
2018-06-25T14:11:28.060Z,26.40
2018-06-25T14:13:56.041Z,26.10
2018-06-25T14:16:24.181Z,25.90
2018-06-25T14:18:52.091Z,26.30
2018-06-25T14:21:20.108Z,26.30
2018-06-25T14:25:58.837Z,26.70
2018-06-25T14:28:31.713Z,26.80
2018-06-25T14:31:05.583Z,26.30
2018-06-25T14:33:39.007Z,27.20
2018-06-25T14:36:07.409Z,27.10
2018-06-25T14:38:35.405Z,26.80
2018-06-25T14:41:03.467Z,26.50
2018-06-25T14:43:32.402Z,26.60
2018-06-25T14:46:00.828Z,26.50
2018-06-25T14:48:28.985Z,26.10
2018-06-25T14:50:56.907Z,25.90
2018-06-25T14:53:24.851Z,26.10
2018-06-25T14:55:52.770Z,26.20
2018-06-25T14:58:20.757Z,26.10
2018-06-25T15:00:48.690Z,26.50
2018-06-25T15:03:16.747Z,26.60
2018-06-25T15:05:44.750Z,26.00
2018-06-25T15:08:12.816Z,26.10
2018-06-25T15:10:40.724Z,25.80
2018-06-25T15:13:09.053Z,26.00
2018-06-25T15:15:36.923Z,26.50
2018-06-25T15:18:05.315Z,26.20
2018-06-25T15:20:33.288Z,26.10
2018-06-25T15:23:01.456Z,26.20
2018-06-25T15:25:29.468Z,26.30
2018-06-25T15:27:57.535Z,25.90
2018-06-25T15:30:25.566Z,26.00
2018-06-25T15:32:53.717Z,25.90
2018-06-25T15:35:21.718Z,26.30
2018-06-25T15:37:49.752Z,26.40
2018-06-25T15:40:17.799Z,26.60
2018-06-25T15:42:45.819Z,27.00
2018-06-25T15:45:13.785Z,26.80
2018-06-25T15:47:41.762Z,26.80
2018-06-25T15:50:09.752Z,26.80
2018-06-25T15:52:37.791Z,26.60
2018-06-25T15:55:05.723Z,26.40
2018-06-25T15:57:33.669Z,26.70
2018-06-25T16:00:01.719Z,26.50
2018-06-25T16:02:29.659Z,26.60
2018-06-25T16:04:57.587Z,25.80
2018-06-25T16:07:25.595Z,25.50
2018-06-25T16:09:53.540Z,25.50
2018-06-25T16:12:21.484Z,25.50
2018-06-25T16:14:49.480Z,25.00
2018-06-25T16:17:17.560Z,25.00
2018-06-25T16:19:45.474Z,25.50
2018-06-25T16:22:13.448Z,25.90
2018-06-25T16:24:41.358Z,25.40
2018-06-25T16:27:09.327Z,25.40
2018-06-25T16:29:37.236Z,25.10
2018-06-25T16:32:05.373Z,24.80
2018-06-25T16:34:33.234Z,25.00
2018-06-25T16:37:01.209Z,25.00
2018-06-25T16:39:29.161Z,24.60
2018-06-25T16:41:57.166Z,24.50
2018-06-25T16:44:25.149Z,24.70
2018-06-25T16:46:53.252Z,24.80
2018-06-25T16:49:21.246Z,24.40
2018-06-25T16:51:50.405Z,24.20
2018-06-25T16:54:18.315Z,24.40
2018-06-25T16:56:46.279Z,24.50
2018-06-25T16:59:14.217Z,24.20
2018-06-25T17:01:42.194Z,24.30
2018-06-25T17:04:10.138Z,24.20
2018-06-25T17:06:38.141Z,24.60
2018-06-25T17:09:09.738Z,24.70
2018-06-25T17:11:37.886Z,24.00
2018-06-25T17:14:07.607Z,23.30
2018-06-25T17:16:35.643Z,23.40
2018-06-25T17:19:03.581Z,23.70
2018-06-25T17:21:31.565Z,23.90
2018-06-25T17:23:59.515Z,23.80
2018-06-25T17:26:27.540Z,23.90
2018-06-25T17:28:55.490Z,23.70
2018-06-25T17:31:23.459Z,23.00
2018-06-25T17:33:51.373Z,21.90
2018-06-25T17:36:19.388Z,21.20
2018-06-25T17:38:47.305Z,20.80
2018-06-25T17:41:15.323Z,20.60
2018-06-25T17:43:43.316Z,20.60
2018-06-25T17:46:11.266Z,20.50
2018-06-25T17:48:39.202Z,20.30
2018-06-25T17:51:07.221Z,20.20
2018-06-25T17:53:35.257Z,20.20
2018-06-25T17:56:03.280Z,20.10
2018-06-25T17:58:31.176Z,20.10
2018-06-25T18:00:59.262Z,20.10
2018-06-25T18:03:27.277Z,20.00
2018-06-25T18:05:56.904Z,20.10
2018-06-25T18:08:24.944Z,20.60
2018-06-25T18:10:52.966Z,20.80
2018-06-25T18:13:20.903Z,20.90
2018-06-25T18:15:49.039Z,20.60
2018-06-25T18:18:17.004Z,20.10
2018-06-25T18:20:45.001Z,19.80
2018-06-25T18:23:13.038Z,19.80
2018-06-25T18:25:41.100Z,20.40
2018-06-25T18:28:09.123Z,20.90
2018-06-25T18:30:37.104Z,20.70
2018-06-25T18:33:05.120Z,20.10
2018-06-25T18:35:33.277Z,19.70
2018-06-25T18:38:01.242Z,19.30
2018-06-25T18:40:29.427Z,19.20
2018-06-25T18:42:57.418Z,19.00
2018-06-25T18:45:25.515Z,18.90
2018-06-25T18:47:53.510Z,18.80
2018-06-25T18:50:21.682Z,18.80
2018-06-25T18:52:49.731Z,18.70
2018-06-25T18:55:17.725Z,18.70
2018-06-25T18:57:45.666Z,18.60
2018-06-25T19:00:13.743Z,18.50
2018-06-25T19:02:41.665Z,18.40
2018-06-25T19:05:09.732Z,18.20
2018-06-25T19:07:37.738Z,18.20
2018-06-25T19:10:05.758Z,18.10
2018-06-25T19:12:33.676Z,18.10
2018-06-25T19:15:01.648Z,17.90
2018-06-25T19:17:29.721Z,17.80
2018-06-25T19:19:57.718Z,17.70
2018-06-25T19:22:25.728Z,17.60
2018-06-25T19:24:53.702Z,17.60
2018-06-25T19:27:21.650Z,17.50
2018-06-25T19:29:49.659Z,17.40
2018-06-25T19:32:17.618Z,17.20
2018-06-25T19:34:46.651Z,17.00
2018-06-25T19:37:14.621Z,16.90
2018-06-25T19:39:42.645Z,16.80
2018-06-25T19:42:10.610Z,16.80
2018-06-25T19:44:38.572Z,16.70
2018-06-25T19:47:06.532Z,16.50
2018-06-25T19:49:34.506Z,16.40
2018-06-25T19:52:02.467Z,16.20
2018-06-25T19:54:30.811Z,16.10
2018-06-25T19:56:58.801Z,16.00
2018-06-25T19:59:26.935Z,15.90
2018-06-25T20:01:54.861Z,15.80
2018-06-25T20:04:22.805Z,15.70
2018-06-25T20:06:50.859Z,15.60
2018-06-25T20:09:18.880Z,15.50
2018-06-25T20:11:46.802Z,15.50
2018-06-25T20:14:14.715Z,15.40
2018-06-25T20:16:42.751Z,15.40
2018-06-25T20:19:10.752Z,15.20
2018-06-25T20:21:38.705Z,15.20
2018-06-25T20:24:06.768Z,15.10
2018-06-25T20:26:34.741Z,15.00
2018-06-25T20:29:08.178Z,14.80
2018-06-25T20:31:36.043Z,14.80
2018-06-25T20:34:04.264Z,14.80
2018-06-25T20:36:43.377Z,14.80
2018-06-25T20:39:11.995Z,14.80
2018-06-25T20:41:41.218Z,14.70
2018-06-25T20:44:10.202Z,14.70
2018-06-25T20:46:38.189Z,14.60
2018-06-25T20:49:06.155Z,14.60
2018-06-25T20:51:34.205Z,14.50
2018-06-25T20:54:02.132Z,14.50
2018-06-25T20:56:30.156Z,14.40
2018-06-25T20:58:57.999Z,14.30
2018-06-25T21:01:25.983Z,14.30
2018-06-25T21:03:53.943Z,14.20
2018-06-25T21:06:22.030Z,14.10
2018-06-25T21:08:50.067Z,14.00
2018-06-25T21:11:18.270Z,14.00
2018-06-25T21:13:46.219Z,13.90
2018-06-25T21:16:14.229Z,13.90
2018-06-25T21:18:42.192Z,13.80
2018-06-25T21:21:10.176Z,13.70
2018-06-25T21:23:38.136Z,13.50
2018-06-25T21:26:06.290Z,13.50
2018-06-25T21:28:34.148Z,13.40
2018-06-25T21:31:02.131Z,13.50
2018-06-25T21:33:29.994Z,13.60
2018-06-25T21:35:57.998Z,13.60
2018-06-25T21:38:25.908Z,13.60
2018-06-25T21:40:53.962Z,13.60
2018-06-25T21:43:21.871Z,13.50
2018-06-25T21:45:49.790Z,13.50
2018-06-25T21:48:17.727Z,13.40
2018-06-25T21:50:45.709Z,13.30
2018-06-25T21:53:13.692Z,13.20
2018-06-25T21:55:41.746Z,13.20
2018-06-25T21:58:09.678Z,13.20
2018-06-25T22:00:46.885Z,13.10
2018-06-25T22:03:15.113Z,13.10
2018-06-25T22:05:43.095Z,13.00
2018-06-25T22:08:11.356Z,12.90
2018-06-25T22:10:39.386Z,12.90
2018-06-25T22:13:07.352Z,12.80
2018-06-25T22:15:35.473Z,12.80
2018-06-25T22:18:03.955Z,12.80
2018-06-25T22:20:32.038Z,12.80
2018-06-25T22:23:00.133Z,12.80
2018-06-25T22:25:28.105Z,12.90
2018-06-25T22:27:56.407Z,13.00
2018-06-25T22:30:24.430Z,13.00
2018-06-25T22:32:52.494Z,13.00
2018-06-25T22:35:20.504Z,13.00
2018-06-25T22:37:48.778Z,13.00
2018-06-25T22:40:16.849Z,13.00
2018-06-25T22:42:45.737Z,13.00
2018-06-25T22:45:13.894Z,12.90
2018-06-25T22:47:41.842Z,13.00
2018-06-25T22:50:09.874Z,13.00
2018-06-25T22:52:37.839Z,12.90
2018-06-25T22:55:06.142Z,12.90
2018-06-25T22:57:34.080Z,12.90
2018-06-25T23:00:02.163Z,12.80
2018-06-25T23:02:30.103Z,12.80
2018-06-25T23:04:58.061Z,12.90
2018-06-25T23:07:26.190Z,12.90
2018-06-25T23:09:54.258Z,12.90
2018-06-25T23:12:22.195Z,12.90
2018-06-25T23:14:50.111Z,12.90
2018-06-25T23:17:18.031Z,12.80
2018-06-25T23:19:45.960Z,12.80
2018-06-25T23:22:13.957Z,12.80
2018-06-25T23:24:41.915Z,12.80
2018-06-25T23:27:09.853Z,12.80
2018-06-25T23:29:37.827Z,12.70
2018-06-25T23:32:05.725Z,12.70
2018-06-25T23:34:33.667Z,12.70
2018-06-25T23:37:01.550Z,12.70
2018-06-25T23:39:29.503Z,12.70
2018-06-25T23:41:57.466Z,12.70
2018-06-25T23:44:25.467Z,12.70
2018-06-25T23:46:53.357Z,12.70
2018-06-25T23:49:21.300Z,12.80
2018-06-25T23:51:49.229Z,12.70
2018-06-25T23:54:17.254Z,12.70
2018-06-25T23:56:45.169Z,12.70
2018-06-25T23:59:13.179Z,12.70
